Time;durP1;ratioP1;P1;durP2;ratioP2;P2;SDS_P1;SDS_P2;PMS_P1;PMS_P2;Temp;Humidity;BMP_temperature;BMP_pressure;BME280_temperature;BME280_humidity;BME280_pressure;Samples;Min_cycle;Max_cycle;Signal;HPM_P1;HPM_P2
2023/12/07 00:01:06;;;;;;;28.27;25.47;;;2.30;99.90;;;;;;5020409;28;20930;-40
2023/12/07 00:03:31;;;;;;;27.03;24.53;;;2.30;99.90;;;;;;5021079;28;20706;-41
2023/12/07 00:05:57;;;;;;;28.77;25.90;;;2.30;99.90;;;;;;5020131;28;20632;-41
2023/12/07 00:08:23;;;;;;;27.30;24.70;;;2.30;99.90;;;;;;5019061;28;20427;-40
2023/12/07 00:10:48;;;;;;;27.60;25.13;;;2.30;99.90;;;;;;5022746;28;20639;-41
2023/12/07 00:13:14;;;;;;;30.70;27.40;;;2.40;99.90;;;;;;5024197;28;20197;-40
2023/12/07 00:15:40;;;;;;;28.33;25.50;;;2.40;99.90;;;;;;5024486;28;20560;-41
2023/12/07 00:18:06;;;;;;;28.70;26.07;;;2.40;99.90;;;;;;5023008;28;20239;-40
2023/12/07 00:20:31;;;;;;;29.43;26.27;;;2.40;99.90;;;;;;5023954;28;20487;-41
2023/12/07 00:22:57;;;;;;;27.80;24.90;;;2.40;99.90;;;;;;5023505;28;20687;-40
2023/12/07 00:25:22;;;;;;;28.30;25.30;;;2.30;99.90;;;;;;5024070;28;20210;-40
2023/12/07 00:27:49;;;;;;;28.67;25.97;;;2.40;99.90;;;;;;5023807;28;20191;-41
2023/12/07 00:30:14;;;;;;;29.10;25.33;;;2.40;99.90;;;;;;5024199;28;20221;-39
2023/12/07 00:32:43;;;;;;;28.70;25.70;;;2.40;99.90;;;;;;5023879;28;20216;-38
2023/12/07 00:35:09;;;;;;;28.00;25.15;;;2.40;99.90;;;;;;5023676;28;20192;-38
2023/12/07 00:37:35;;;;;;;28.40;25.55;;;2.40;99.90;;;;;;5023526;28;20208;-38
2023/12/07 00:40:01;;;;;;;29.23;26.33;;;2.30;99.90;;;;;;5023926;28;20218;-38
2023/12/07 00:42:27;;;;;;;29.10;26.20;;;2.30;99.90;;;;;;5020614;28;20222;-38
2023/12/07 00:44:53;;;;;;;29.37;26.37;;;2.30;99.90;;;;;;5021565;28;20195;-38
2023/12/07 00:47:19;;;;;;;30.45;27.35;;;2.30;99.90;;;;;;5023446;28;20770;-39
2023/12/07 00:49:45;;;;;;;30.83;27.43;;;2.30;99.90;;;;;;5022637;28;20199;-39
2023/12/07 00:52:10;;;;;;;37.43;27.50;;;2.20;99.90;;;;;;5022536;28;20510;-38
2023/12/07 00:54:36;;;;;;;29.13;26.03;;;2.30;99.90;;;;;;5023564;28;20193;-38
2023/12/07 00:57:01;;;;;;;28.43;25.50;;;2.30;99.90;;;;;;5023294;28;20184;-39
2023/12/07 00:59:27;;;;;;;27.27;24.57;;;2.30;99.90;;;;;;5023453;28;20213;-38
2023/12/07 01:01:52;;;;;;;28.67;25.93;;;2.30;99.90;;;;;;5023509;28;20319;-38
2023/12/07 01:04:18;;;;;;;27.40;24.80;;;2.30;99.90;;;;;;5023176;28;20238;-39
2023/12/07 01:06:44;;;;;;;28.00;25.27;;;2.30;99.90;;;;;;5021692;28;20266;-39
2023/12/07 01:09:13;;;;;;;29.07;26.07;;;2.30;99.90;;;;;;5023380;28;20268;-39
2023/12/07 01:11:42;;;;;;;29.48;26.33;;;2.30;99.90;;;;;;5023357;28;20201;-39
2023/12/07 01:14:07;;;;;;;30.05;26.77;;;2.30;99.90;;;;;;5022388;28;20981;-39
2023/12/07 01:16:33;;;;;;;29.60;26.57;;;2.30;99.90;;;;;;5023002;28;20241;-40
2023/12/07 01:18:59;;;;;;;29.13;26.33;;;2.30;99.90;;;;;;5022802;28;20776;-39
2023/12/07 01:21:24;;;;;;;30.17;26.90;;;2.30;99.90;;;;;;5021919;28;20275;-39
2023/12/07 01:23:50;;;;;;;29.70;26.70;;;2.30;99.90;;;;;;5022411;28;20200;-39
2023/12/07 01:26:15;;;;;;;28.70;25.80;;;2.30;99.90;;;;;;5023187;28;20776;-44
2023/12/07 01:28:41;;;;;;;28.13;25.30;;;2.30;99.90;;;;;;5022433;28;20523;-40
2023/12/07 01:31:06;;;;;;;27.10;24.40;;;2.40;99.90;;;;;;5022812;28;20217;-40
2023/12/07 01:33:32;;;;;;;28.53;25.53;;;2.30;99.90;;;;;;5022443;28;20185;-40
2023/12/07 01:35:58;;;;;;;29.23;26.17;;;2.40;99.90;;;;;;5022885;28;21122;-39
2023/12/07 01:38:23;;;;;;;29.50;26.30;;;2.40;99.90;;;;;;5022612;28;20249;-40
2023/12/07 01:40:49;;;;;;;33.07;26.33;;;2.40;99.90;;;;;;5019883;28;20242;-39
2023/12/07 01:43:14;;;;;;;28.60;25.43;;;2.30;99.90;;;;;;5022745;28;20253;-39
2023/12/07 01:45:40;;;;;;;29.70;26.63;;;2.20;99.90;;;;;;5022665;28;20654;-39
2023/12/07 01:48:06;;;;;;;30.83;27.50;;;2.20;99.90;;;;;;5022823;28;20872;-39
2023/12/07 01:50:33;;;;;;;29.67;26.70;;;2.20;99.90;;;;;;5021402;28;20210;-39
2023/12/07 01:53:03;;;;;;;29.42;26.30;;;2.20;99.90;;;;;;5022062;28;20193;-39
2023/12/07 01:55:31;;;;;;;28.88;25.88;;;2.10;99.90;;;;;;5022051;28;20249;-39
2023/12/07 01:57:57;;;;;;;29.52;26.30;;;2.10;99.90;;;;;;5022360;28;20224;-39
2023/12/07 02:00:23;;;;;;;30.97;26.20;;;2.00;99.90;;;;;;5022114;28;20337;-39
2023/12/07 02:02:51;;;;;;;27.80;24.98;;;2.00;99.90;;;;;;5021658;28;20466;-39
2023/12/07 02:05:17;;;;;;;30.92;26.20;;;2.00;99.90;;;;;;5021966;28;20184;-40
2023/12/07 02:07:43;;;;;;;27.70;24.90;;;2.00;99.90;;;;;;5022328;28;20238;-39
2023/12/07 02:10:10;;;;;;;30.42;25.77;;;2.10;99.90;;;;;;5020668;28;20422;-39
2023/12/07 02:12:36;;;;;;;28.10;25.30;;;2.00;99.90;;;;;;5022594;28;20223;-40
2023/12/07 02:15:03;;;;;;;28.10;25.00;;;2.10;99.90;;;;;;5022378;28;20295;-39
2023/12/07 02:17:33;;;;;;;29.55;26.40;;;2.10;99.90;;;;;;5021939;28;20283;-39
2023/12/07 02:20:25;;;;;;;30.25;25.95;;;2.20;99.90;;;;;;5021456;28;20235;-54
2023/12/07 02:22:57;;;;;;;27.70;24.85;;;2.20;99.90;;;;;;5021932;28;20670;-54
2023/12/07 02:25:51;;;;;;;28.65;25.70;;;2.20;99.90;;;;;;5021445;28;20226;-50
2023/12/07 02:28:17;;;;;;;26.92;24.10;;;2.20;99.90;;;;;;5019084;28;20192;-52
2023/12/07 02:30:43;;;;;;;26.70;24.00;;;2.30;99.90;;;;;;5021221;28;20690;-53
2023/12/07 02:33:09;;;;;;;30.25;26.00;;;2.30;99.90;;;;;;5018956;28;20209;-53
2023/12/07 02:35:36;;;;;;;28.10;25.33;;;2.30;99.90;;;;;;5021522;28;20193;-52
2023/12/07 02:38:03;;;;;;;31.27;26.05;;;2.30;99.90;;;;;;5021520;28;20199;-51
2023/12/07 02:40:30;;;;;;;27.77;24.98;;;2.30;99.90;;;;;;5021689;28;20183;-55
2023/12/07 02:42:57;;;;;;;27.05;24.15;;;2.30;99.90;;;;;;5021524;28;20221;-53
2023/12/07 02:45:23;;;;;;;27.83;24.90;;;2.40;99.90;;;;;;5021159;28;20258;-53
2023/12/07 02:47:48;;;;;;;27.90;24.90;;;2.30;99.90;;;;;;5021400;28;20182;-53
2023/12/07 02:50:15;;;;;;;26.90;24.33;;;2.30;99.90;;;;;;5021314;28;20198;-54
2023/12/07 02:52:40;;;;;;;27.90;25.10;;;2.30;99.90;;;;;;5021179;28;20187;-55
2023/12/07 02:55:07;;;;;;;26.53;23.90;;;2.30;99.90;;;;;;5021304;28;20234;-53
2023/12/07 02:57:35;;;;;;;26.88;24.23;;;2.30;99.90;;;;;;5019742;28;20790;-52
2023/12/07 03:00:07;;;;;;;28.02;25.33;;;2.30;99.90;;;;;;5020169;28;20319;-50
2023/12/07 03:02:36;;;;;;;27.40;24.63;;;2.30;99.90;;;;;;5020683;28;20619;-52
2023/12/07 03:05:02;;;;;;;28.25;25.13;;;2.30;99.90;;;;;;5020974;28;20254;-51
2023/12/07 03:07:27;;;;;;;28.30;24.57;;;2.30;99.90;;;;;;5020966;28;20199;-53
2023/12/07 03:09:53;;;;;;;26.13;23.43;;;2.40;99.90;;;;;;5020562;28;20406;-40
2023/12/07 03:12:19;;;;;;;27.37;24.57;;;2.40;99.90;;;;;;5021141;28;20793;-42
2023/12/07 03:14:44;;;;;;;27.70;24.87;;;2.40;99.90;;;;;;5021010;28;20188;-38
2023/12/07 03:17:10;;;;;;;30.53;25.30;;;2.40;99.90;;;;;;5021005;28;20188;-39
2023/12/07 03:19:40;;;;;;;26.70;24.00;;;2.50;99.90;;;;;;5020703;28;20299;-39
2023/12/07 03:22:09;;;;;;;27.73;24.73;;;2.50;99.90;;;;;;5020156;28;20231;-39
2023/12/07 03:24:36;;;;;;;28.13;24.90;;;2.50;99.90;;;;;;5020629;28;20173;-40
2023/12/07 03:27:02;;;;;;;27.20;23.92;;;2.50;99.90;;;;;;5019521;28;20213;-39
2023/12/07 03:29:27;;;;;;;27.33;24.30;;;2.50;99.90;;;;;;5019786;28;20216;-39
2023/12/07 03:31:53;;;;;;;27.87;24.77;;;2.50;99.90;;;;;;5020378;28;20426;-39
2023/12/07 03:34:18;;;;;;;26.43;23.57;;;2.50;99.90;;;;;;5020348;28;20203;-39
2023/12/07 03:36:48;;;;;;;27.13;24.23;;;2.50;99.90;;;;;;5020572;28;20197;-40
2023/12/07 03:39:15;;;;;;;26.27;23.63;;;2.50;99.90;;;;;;5020800;28;20278;-39
2023/12/07 03:41:41;;;;;;;27.85;25.15;;;2.50;99.90;;;;;;5020445;28;20287;-39
2023/12/07 03:44:06;;;;;;;27.40;24.43;;;2.50;99.90;;;;;;5020217;28;20195;-39
2023/12/07 03:46:32;;;;;;;28.00;25.00;;;2.50;99.90;;;;;;5020400;28;20902;-39
2023/12/07 03:48:58;;;;;;;26.97;24.37;;;2.50;99.90;;;;;;5020363;28;20711;-39
2023/12/07 03:51:23;;;;;;;26.90;24.23;;;2.50;99.90;;;;;;5020004;28;20268;-48
2023/12/07 03:53:49;;;;;;;25.37;22.77;;;2.50;99.90;;;;;;5020525;28;20192;-54
2023/12/07 03:56:30;;;;;;;28.00;25.10;;;2.50;99.90;;;;;;5018677;28;20200;-52
2023/12/07 03:58:56;;;;;;;27.90;24.17;;;2.40;99.90;;;;;;5020309;28;20196;-49
2023/12/07 04:01:27;;;;;;;25.67;23.13;;;2.50;99.90;;;;;;5019468;28;20191;-50
2023/12/07 04:03:57;;;;;;;27.23;24.35;;;2.40;99.90;;;;;;5018753;28;20188;-55
2023/12/07 04:06:24;;;;;;;28.05;23.85;;;2.40;99.90;;;;;;5020353;28;20182;-52
2023/12/07 04:08:50;;;;;;;26.98;22.83;;;2.30;99.90;;;;;;5020485;28;20199;-56
2023/12/07 04:11:15;;;;;;;29.63;23.93;;;2.30;99.90;;;;;;5019513;28;20186;-56
2023/12/07 04:13:41;;;;;;;34.37;24.20;;;2.30;99.90;;;;;;5020621;28;20411;-52
2023/12/07 04:16:08;;;;;;;27.03;23.67;;;2.40;99.90;;;;;;5020472;28;20408;-55
2023/12/07 04:18:34;;;;;;;26.40;23.65;;;2.40;99.90;;;;;;5020393;28;20440;-53
2023/12/07 04:20:59;;;;;;;28.87;25.73;;;2.40;99.90;;;;;;5020172;28;20237;-51
2023/12/07 04:23:25;;;;;;;25.63;22.97;;;2.40;99.90;;;;;;5020189;28;20215;-53
2023/12/07 04:25:51;;;;;;;27.20;24.17;;;2.40;99.90;;;;;;5019759;28;20193;-54
2023/12/07 04:28:16;;;;;;;25.03;22.50;;;2.40;99.90;;;;;;5019678;28;20177;-57
2023/12/07 04:30:42;;;;;;;26.23;23.73;;;2.40;99.90;;;;;;5020212;28;20597;-56
2023/12/07 04:33:08;;;;;;;26.43;23.63;;;2.40;99.90;;;;;;5020442;28;20432;-55
2023/12/07 04:35:34;;;;;;;26.07;23.37;;;2.40;99.90;;;;;;5019567;28;20262;-56
2023/12/07 04:38:00;;;;;;;27.65;24.05;;;2.40;99.90;;;;;;5020167;28;20194;-56
2023/12/07 04:40:26;;;;;;;25.80;23.07;;;2.40;99.90;;;;;;5020259;28;20188;-55
2023/12/07 04:42:51;;;;;;;27.47;23.67;;;2.40;99.90;;;;;;5019949;28;21004;-50
2023/12/07 04:45:17;;;;;;;27.17;24.03;;;2.40;99.90;;;;;;5020418;28;20194;-54
2023/12/07 04:47:43;;;;;;;25.53;22.80;;;2.40;99.90;;;;;;5019790;28;20200;-52
2023/12/07 04:50:09;;;;;;;25.67;22.90;;;2.40;99.90;;;;;;5020068;28;20497;-56
2023/12/07 04:52:35;;;;;;;25.23;22.50;;;2.40;99.90;;;;;;5020027;28;20196;-53
2023/12/07 04:55:01;;;;;;;29.27;24.30;;;2.40;99.90;;;;;;5019833;28;20648;-54
2023/12/07 04:57:27;;;;;;;29.03;23.33;;;2.40;99.90;;;;;;5020758;28;20200;-55
2023/12/07 04:59:52;;;;;;;27.57;24.23;;;2.30;99.90;;;;;;5023558;28;20999;-56
2023/12/07 05:02:18;;;;;;;26.73;23.80;;;2.30;99.90;;;;;;5023430;28;20466;-54
2023/12/07 05:04:45;;;;;;;29.37;23.93;;;2.20;99.90;;;;;;5022293;28;20184;-51
2023/12/07 05:07:11;;;;;;;29.45;23.70;;;2.20;99.90;;;;;;5023037;28;20545;-55
2023/12/07 05:09:38;;;;;;;26.95;23.60;;;2.20;99.90;;;;;;5022867;28;20253;-56
2023/12/07 05:12:04;;;;;;;28.10;24.98;;;2.30;99.90;;;;;;5023299;28;20208;-55
2023/12/07 05:14:31;;;;;;;26.30;22.52;;;2.30;99.90;;;;;;5021906;28;20194;-56
2023/12/07 05:16:57;;;;;;;26.45;22.58;;;2.30;99.90;;;;;;5022807;28;20198;-52
2023/12/07 05:19:23;;;;;;;27.93;21.80;;;2.30;99.90;;;;;;5022201;28;20311;-51
2023/12/07 05:21:49;;;;;;;28.55;24.60;;;2.30;99.90;;;;;;5021144;28;20208;-50
2023/12/07 05:24:15;;;;;;;27.97;24.27;;;2.30;99.90;;;;;;5022174;28;20697;-53
2023/12/07 05:26:48;;;;;;;28.63;24.15;;;2.40;99.90;;;;;;5020855;28;20185;-51
2023/12/07 05:29:15;;;;;;;27.73;24.08;;;2.40;99.90;;;;;;5037138;28;20208;-52
2023/12/07 05:31:41;;;;;;;27.33;23.10;;;2.40;99.90;;;;;;5022467;28;20670;-54
2023/12/07 05:34:10;;;;;;;27.63;23.13;;;2.40;99.90;;;;;;5022573;28;20289;-50
2023/12/07 05:36:35;;;;;;;26.73;23.23;;;2.40;99.90;;;;;;5022993;28;20655;-53
2023/12/07 05:39:01;;;;;;;28.53;24.40;;;2.50;99.90;;;;;;5022285;28;20199;-53
2023/12/07 05:41:26;;;;;;;28.77;24.07;;;2.50;99.90;;;;;;5021426;28;20216;-50
2023/12/07 05:43:52;;;;;;;31.30;24.40;;;2.50;99.90;;;;;;5022412;28;20180;-52
2023/12/07 05:46:19;;;;;;;27.00;23.80;;;2.50;99.90;;;;;;5022371;28;20875;-55
2023/12/07 05:48:44;;;;;;;29.60;23.70;;;2.50;99.90;;;;;;5022001;28;20482;-56
2023/12/07 05:51:17;;;;;;;30.50;24.07;;;2.40;99.90;;;;;;5021868;28;20181;-50
2023/12/07 05:53:43;;;;;;;30.08;23.35;;;2.30;99.90;;;;;;5020258;28;20964;-55
2023/12/07 05:56:10;;;;;;;28.27;24.50;;;2.40;99.90;;;;;;5021245;28;20192;-51
2023/12/07 05:58:36;;;;;;;27.38;21.90;;;2.40;99.90;;;;;;5021346;28;20193;-56
2023/12/07 06:01:02;;;;;;;28.63;24.00;;;2.50;99.90;;;;;;5020695;28;21418;-50
2023/12/07 06:03:29;;;;;;;30.63;24.97;;;2.50;99.90;;;;;;5018822;28;20424;-51
2023/12/07 06:05:55;;;;;;;30.50;25.20;;;2.50;99.90;;;;;;5021336;28;20674;-54
2023/12/07 06:08:21;;;;;;;31.17;22.33;;;2.60;99.90;;;;;;5021200;28;20182;-54
2023/12/07 06:10:47;;;;;;;33.05;23.98;;;2.60;99.90;;;;;;5020877;28;20276;-49
2023/12/07 06:13:13;;;;;;;31.50;23.20;;;2.60;99.90;;;;;;5020952;28;20185;-53
2023/12/07 06:15:39;;;;;;;30.50;24.40;;;2.60;99.90;;;;;;5021294;28;20474;-54
2023/12/07 06:18:05;;;;;;;32.88;25.38;;;2.60;99.90;;;;;;5021334;28;20185;-52
2023/12/07 06:20:31;;;;;;;31.70;25.17;;;2.70;99.90;;;;;;5020825;28;20232;-39
2023/12/07 06:22:57;;;;;;;33.87;24.70;;;2.70;99.90;;;;;;5019983;28;20247;-38
2023/12/07 06:25:23;;;;;;;34.42;24.85;;;2.70;99.90;;;;;;5021019;28;20587;-40
2023/12/07 06:27:49;;;;;;;32.90;25.60;;;2.70;99.90;;;;;;5019460;28;20287;-39
2023/12/07 06:30:14;;;;;;;30.70;25.23;;;2.70;99.90;;;;;;5020404;28;20573;-38
2023/12/07 06:32:40;;;;;;;27.97;24.20;;;2.70;99.90;;;;;;5020836;28;20324;-44
2023/12/07 06:35:09;;;;;;;33.20;25.47;;;2.60;99.90;;;;;;5020585;28;20210;-50
2023/12/07 06:37:35;;;;;;;26.38;23.02;;;2.60;99.90;;;;;;5020657;28;20208;-54
2023/12/07 06:40:00;;;;;;;34.53;26.00;;;2.60;99.90;;;;;;5019831;28;20235;-51
2023/12/07 06:42:26;;;;;;;32.60;25.10;;;2.60;99.90;;;;;;5020217;28;20885;-53
2023/12/07 06:44:52;;;;;;;33.78;25.42;;;2.60;99.90;;;;;;5020666;28;20185;-54
2023/12/07 06:47:18;;;;;;;29.43;24.63;;;2.60;99.90;;;;;;5021123;28;20192;-50
2023/12/07 06:49:45;;;;;;;32.20;24.50;;;2.60;99.90;;;;;;5020609;28;20187;-55
2023/12/07 06:52:11;;;;;;;33.80;26.05;;;2.60;99.90;;;;;;5019840;28;20435;-52
2023/12/07 06:54:38;;;;;;;27.77;24.53;;;2.60;99.90;;;;;;5020711;28;20196;-52
2023/12/07 06:57:04;;;;;;;31.92;26.27;;;2.60;99.90;;;;;;5018740;28;20212;-53
2023/12/07 06:59:30;;;;;;;38.08;28.60;;;2.70;99.90;;;;;;5019572;28;20656;-55
2023/12/07 07:01:55;;;;;;;30.57;26.30;;;2.70;99.90;;;;;;5020106;28;20259;-51
2023/12/07 07:04:21;;;;;;;37.10;26.97;;;2.70;99.90;;;;;;5018653;28;20193;-54
2023/12/07 07:06:46;;;;;;;30.77;24.73;;;2.70;99.90;;;;;;5018779;28;20204;-52
2023/12/07 07:09:12;;;;;;;32.90;26.20;;;2.70;99.90;;;;;;5001447;28;20266;-49
2023/12/07 07:11:38;;;;;;;30.47;25.13;;;2.70;99.90;;;;;;5019948;28;20197;-54
2023/12/07 07:14:04;;;;;;;28.93;25.77;;;2.60;99.90;;;;;;5019790;28;20415;-53
2023/12/07 07:16:30;;;;;;;32.50;25.93;;;2.70;99.90;;;;;;5019654;28;20415;-54
2023/12/07 07:18:56;;;;;;;31.40;25.00;;;2.70;99.90;;;;;;5018876;28;20413;-49
2023/12/07 07:21:21;;;;;;;37.30;27.93;;;2.70;99.90;;;;;;5017656;28;20467;-49
2023/12/07 07:23:49;;;;;;;30.73;25.20;;;2.80;99.90;;;;;;5018980;28;20279;-53
2023/12/07 07:26:17;;;;;;;35.35;27.45;;;2.80;99.90;;;;;;5034177;28;20193;-54
2023/12/07 07:28:43;;;;;;;34.38;25.80;;;2.80;99.90;;;;;;5019940;28;20652;-53
2023/12/07 07:31:09;;;;;;;31.23;25.13;;;2.80;99.90;;;;;;5019350;28;20835;-53
2023/12/07 07:33:35;;;;;;;28.43;24.10;;;2.80;99.90;;;;;;5020274;28;20189;-56
2023/12/07 07:36:01;;;;;;;33.77;24.83;;;2.80;99.90;;;;;;5020059;28;20199;-56
2023/12/07 07:38:27;;;;;;;36.00;25.98;;;2.80;99.90;;;;;;5018330;28;20185;-56
2023/12/07 07:40:53;;;;;;;35.70;27.20;;;2.90;99.90;;;;;;5019921;28;20181;-40
2023/12/07 07:43:18;;;;;;;32.80;26.37;;;2.90;99.90;;;;;;5019676;28;20217;-40
2023/12/07 07:45:45;;;;;;;34.47;25.97;;;2.90;99.90;;;;;;5017185;28;20193;-42
2023/12/07 07:48:12;;;;;;;32.83;25.15;;;2.90;99.90;;;;;;5018921;28;20189;-40
2023/12/07 07:50:37;;;;;;;34.55;25.08;;;2.80;99.90;;;;;;5017842;28;20225;-42
2023/12/07 07:53:03;;;;;;;33.10;26.43;;;2.90;99.90;;;;;;5017693;28;20650;-41
2023/12/07 07:55:30;;;;;;;34.40;27.83;;;2.80;99.90;;;;;;5019359;28;20186;-41
2023/12/07 07:57:55;;;;;;;34.95;26.13;;;2.90;99.90;;;;;;5019733;28;20637;-40
2023/12/07 08:00:21;;;;;;;34.60;26.37;;;2.90;99.90;;;;;;5018518;28;20188;-40
2023/12/07 08:02:47;;;;;;;35.70;26.07;;;2.90;99.90;;;;;;5019036;28;20940;-40
2023/12/07 08:05:13;;;;;;;34.28;27.00;;;2.90;99.90;;;;;;5019226;28;20207;-40
2023/12/07 08:07:40;;;;;;;31.33;25.60;;;2.90;99.90;;;;;;5015134;28;20240;-41
2023/12/07 08:10:06;;;;;;;37.92;27.40;;;2.90;99.90;;;;;;5014540;28;20201;-40
2023/12/07 08:12:32;;;;;;;30.83;26.40;;;2.90;99.90;;;;;;5019196;28;20222;-40
2023/12/07 08:14:58;;;;;;;32.20;26.48;;;2.90;99.90;;;;;;5018496;28;20197;-41
2023/12/07 08:17:26;;;;;;;32.70;25.50;;;2.80;99.90;;;;;;5019014;28;20193;-40
2023/12/07 08:19:52;;;;;;;35.70;26.40;;;2.90;99.90;;;;;;5018875;28;20271;-41
2023/12/07 08:22:17;;;;;;;33.40;25.90;;;2.90;99.90;;;;;;5018011;28;20699;-41
2023/12/07 08:24:43;;;;;;;33.40;27.20;;;2.90;99.90;;;;;;5017462;28;20428;-41
2023/12/07 08:27:09;;;;;;;33.27;26.67;;;3.00;99.90;;;;;;5016245;28;20773;-41
2023/12/07 08:29:35;;;;;;;41.70;28.90;;;3.00;99.90;;;;;;5018814;28;20216;-41
2023/12/07 08:32:00;;;;;;;36.17;28.58;;;3.10;99.90;;;;;;5021492;28;20190;-40
2023/12/07 08:34:26;;;;;;;33.20;27.17;;;3.10;99.90;;;;;;5022773;28;20935;-57
2023/12/07 08:36:52;;;;;;;34.67;27.23;;;3.10;99.90;;;;;;5022997;28;20177;-51
2023/12/07 08:39:17;;;;;;;35.13;27.10;;;3.20;99.90;;;;;;5022949;28;20237;-50
2023/12/07 08:41:43;;;;;;;33.83;27.07;;;3.20;99.90;;;;;;5023151;28;20196;-54
2023/12/07 08:44:08;;;;;;;37.50;27.43;;;3.10;99.90;;;;;;5022458;28;20191;-57
2023/12/07 08:46:34;;;;;;;38.80;27.63;;;3.20;99.90;;;;;;5021092;28;21207;-55
2023/12/07 08:49:01;;;;;;;32.67;27.03;;;3.20;99.90;;;;;;5023239;28;20185;-53
2023/12/07 08:51:28;;;;;;;35.35;26.50;;;3.20;99.90;;;;;;5022551;28;20499;-55
2023/12/07 08:53:54;;;;;;;33.10;27.40;;;3.30;99.90;;;;;;5022078;28;20192;-56
2023/12/07 08:56:20;;;;;;;33.43;28.30;;;3.30;99.90;;;;;;5018262;28;20647;-54
2023/12/07 08:58:45;;;;;;;36.67;28.07;;;3.30;99.90;;;;;;5021636;28;20451;-56
2023/12/07 09:01:11;;;;;;;34.67;26.90;;;3.30;99.90;;;;;;5021697;28;20190;-55
2023/12/07 09:03:37;;;;;;;34.27;27.50;;;3.30;99.90;;;;;;5021596;28;20217;-53
2023/12/07 09:06:03;;;;;;;34.10;26.37;;;3.30;99.90;;;;;;5019698;28;20617;-39
2023/12/07 09:08:28;;;;;;;32.63;27.35;;;3.30;99.90;;;;;;5022269;28;20461;-40
2023/12/07 09:10:54;;;;;;;32.73;26.43;;;3.30;99.90;;;;;;5017969;28;20260;-41
2023/12/07 09:13:20;;;;;;;29.07;25.97;;;3.40;99.90;;;;;;5019392;28;20523;-40
2023/12/07 09:15:45;;;;;;;31.07;25.83;;;3.40;99.90;;;;;;5021843;28;20186;-42
2023/12/07 09:18:11;;;;;;;36.17;25.97;;;3.50;99.90;;;;;;5022198;28;21092;-40
2023/12/07 09:20:45;;;;;;;35.63;26.20;;;3.50;99.90;;;;;;5023024;28;20304;-39
2023/12/07 09:23:17;;;;;;;29.55;25.95;;;3.50;99.90;;;;;;5022816;28;20221;-40
2023/12/07 09:25:43;;;;;;;31.30;24.73;;;3.60;99.90;;;;;;5022554;28;20425;-48
2023/12/07 09:28:09;;;;;;;31.42;24.88;;;3.60;99.90;;;;;;5021669;28;20543;-50
2023/12/07 09:30:34;;;;;;;31.43;26.03;;;3.60;99.90;;;;;;5020540;28;20189;-53
2023/12/07 09:33:02;;;;;;;31.00;26.07;;;3.60;99.90;;;;;;5021828;28;20269;-54
2023/12/07 09:35:28;;;;;;;33.78;28.40;;;3.60;99.90;;;;;;5020081;28;20385;-52
2023/12/07 09:37:54;;;;;;;31.80;26.87;;;3.60;99.90;;;;;;5016739;28;20281;-55
2023/12/07 09:40:22;;;;;;;30.30;26.63;;;3.70;99.90;;;;;;5019828;28;20189;-54
2023/12/07 09:42:48;;;;;;;28.50;25.23;;;3.70;99.90;;;;;;5019348;28;20316;-49
2023/12/07 09:45:16;;;;;;;30.20;26.98;;;3.70;99.90;;;;;;5020151;28;20212;-50
2023/12/07 09:47:43;;;;;;;34.15;26.23;;;3.70;99.90;;;;;;5020141;28;20644;-47
2023/12/07 09:50:09;;;;;;;36.15;25.60;;;3.80;99.90;;;;;;5020870;28;20193;-55
2023/12/07 09:52:38;;;;;;;31.50;25.00;;;3.80;99.90;;;;;;5021515;28;20191;-54
2023/12/07 09:55:05;;;;;;;30.08;26.00;;;3.80;99.90;;;;;;5021460;28;20562;-54
2023/12/07 09:57:32;;;;;;;28.92;25.83;;;3.80;99.90;;;;;;5021094;28;20834;-52
2023/12/07 09:59:58;;;;;;;32.55;24.90;;;3.80;99.90;;;;;;5021136;28;20212;-55
2023/12/07 10:02:25;;;;;;;29.53;24.87;;;3.80;99.90;;;;;;5021418;28;20209;-54
2023/12/07 10:05:04;;;;;;;29.02;24.65;;;3.80;99.90;;;;;;5020978;28;20518;-52
2023/12/07 10:07:35;;;;;;;30.60;25.45;;;3.80;99.90;;;;;;5020358;28;20213;-52
2023/12/07 10:10:01;;;;;;;27.70;24.55;;;3.80;99.90;;;;;;5020423;28;20572;-53
2023/12/07 10:12:26;;;;;;;29.40;25.08;;;3.80;99.90;;;;;;5020099;28;20189;-53
2023/12/07 10:14:52;;;;;;;32.60;26.27;;;3.70;99.90;;;;;;5019807;28;20621;-56
2023/12/07 10:17:17;;;;;;;31.27;25.83;;;3.70;99.90;;;;;;5020759;28;20182;-49
2023/12/07 10:19:43;;;;;;;30.70;26.40;;;3.70;99.90;;;;;;5021172;28;20708;-39
2023/12/07 10:22:15;;;;;;;31.80;24.57;;;3.70;99.90;;;;;;5020520;28;20205;-39
2023/12/07 10:24:42;;;;;;;34.33;26.05;;;3.70;99.90;;;;;;5021264;28;20859;-39
2023/12/07 10:27:08;;;;;;;29.48;25.67;;;3.70;99.90;;;;;;5020622;28;20281;-39
2023/12/07 10:29:38;;;;;;;30.60;25.50;;;3.70;99.90;;;;;;5021352;28;20516;-39
2023/12/07 10:32:04;;;;;;;30.00;26.65;;;3.70;99.90;;;;;;5020831;28;20178;-39
2023/12/07 10:34:31;;;;;;;31.88;25.80;;;3.80;99.90;;;;;;5020614;28;20191;-39
2023/12/07 10:36:57;;;;;;;30.27;25.27;;;3.80;99.90;;;;;;5019780;28;20232;-39
2023/12/07 10:39:26;;;;;;;31.25;25.88;;;3.80;99.90;;;;;;5020635;28;20193;-39
2023/12/07 10:41:56;;;;;;;31.55;26.42;;;3.80;99.90;;;;;;5020515;28;20206;-40
2023/12/07 10:44:26;;;;;;;33.28;26.20;;;3.80;99.90;;;;;;5020153;28;20641;-40
2023/12/07 10:46:52;;;;;;;28.73;24.73;;;3.80;99.90;;;;;;5020371;28;20174;-40
2023/12/07 10:49:21;;;;;;;33.65;25.73;;;3.80;99.90;;;;;;5020419;28;20189;-40
2023/12/07 10:51:46;;;;;;;29.05;24.20;;;3.80;99.90;;;;;;5019772;28;20174;-55
2023/12/07 10:54:17;;;;;;;27.60;23.60;;;3.90;99.90;;;;;;5019905;28;20644;-57
2023/12/07 10:56:45;;;;;;;29.00;24.45;;;3.90;99.90;;;;;;5020299;28;20267;-53
2023/12/07 10:59:12;;;;;;;28.55;23.45;;;3.90;99.90;;;;;;5020111;28;20179;-54
2023/12/07 11:01:42;;;;;;;29.55;22.95;;;3.90;99.90;;;;;;5020482;28;20265;-53
2023/12/07 11:04:12;;;;;;;25.73;20.65;;;3.80;99.90;;;;;;5020437;28;20177;-53
2023/12/07 11:06:42;;;;;;;25.60;21.45;;;3.80;99.90;;;;;;5019857;28;20554;-52
2023/12/07 11:09:12;;;;;;;28.15;21.95;;;3.70;99.90;;;;;;5020194;28;20179;-56
2023/12/07 11:11:46;;;;;;;24.45;21.65;;;3.70;99.90;;;;;;5019829;28;20182;-49
2023/12/07 11:14:12;;;;;;;25.92;22.77;;;3.70;99.90;;;;;;5019875;28;20171;-48
2023/12/07 11:16:41;;;;;;;27.48;20.90;;;3.70;99.90;;;;;;5019815;28;20183;-54
2023/12/07 11:19:43;;;;;;;26.80;21.48;;;3.70;99.90;;;;;;5019589;28;20581;-55
2023/12/07 11:22:13;;;;;;;24.73;21.63;;;3.70;99.90;;;;;;4988710;28;20245;-55
2023/12/07 11:24:58;;;;;;;25.35;21.25;;;3.70;99.90;;;;;;5015558;28;20294;-54
2023/12/07 11:27:25;;;;;;;26.27;22.45;;;3.70;99.90;;;;;;5019571;28;20185;-39
2023/12/07 11:29:51;;;;;;;24.35;21.83;;;3.50;99.90;;;;;;5019547;28;20195;-39
2023/12/07 11:32:17;;;;;;;25.13;21.60;;;3.60;99.90;;;;;;5020060;28;20201;-40
2023/12/07 11:34:43;;;;;;;29.10;24.17;;;3.60;99.90;;;;;;5018210;28;20185;-40
2023/12/07 11:37:11;;;;;;;28.83;24.10;;;3.60;99.90;;;;;;5018088;28;20452;-40
2023/12/07 11:39:37;;;;;;;26.95;23.48;;;3.70;99.90;;;;;;5020037;28;20210;-39
2023/12/07 11:42:15;;;;;;;24.40;21.70;;;3.80;99.90;;;;;;5019520;28;20683;-51
2023/12/07 11:44:42;;;;;;;30.80;23.50;;;3.70;99.90;;;;;;5019633;28;20417;-55
2023/12/07 11:47:09;;;;;;;26.25;23.05;;;3.70;99.90;;;;;;5019804;28;20178;-53
2023/12/07 11:49:35;;;;;;;25.60;22.90;;;3.70;99.90;;;;;;5019271;28;20719;-53
2023/12/07 11:52:11;;;;;;;26.17;23.37;;;3.70;99.90;;;;;;5019328;28;20190;-56
2023/12/07 11:54:37;;;;;;;25.05;22.08;;;3.70;99.90;;;;;;5019944;28;20409;-40
2023/12/07 11:57:03;;;;;;;28.00;22.17;;;3.70;99.90;;;;;;5019232;28;20182;-41
2023/12/07 11:59:29;;;;;;;23.98;21.38;;;3.70;99.90;;;;;;5019645;28;20215;-53
2023/12/07 12:01:54;;;;;;;25.90;22.40;;;3.80;99.90;;;;;;5019650;28;20209;-51
2023/12/07 12:04:22;;;;;;;26.10;22.63;;;3.90;95.10;;;;;;5016789;28;20196;-54
2023/12/07 12:06:47;;;;;;;28.95;22.77;;;3.80;94.20;;;;;;5021387;28;20194;-55
2023/12/07 12:09:17;;;;;;;26.60;20.70;;;3.70;91.10;;;;;;5023638;28;20196;-54
2023/12/07 12:11:50;;;;;;;27.02;21.80;;;3.70;99.90;;;;;;5022877;28;20177;-53
2023/12/07 12:14:19;;;;;;;24.13;20.25;;;3.70;99.90;;;;;;5023707;28;20177;-53
2023/12/07 12:16:46;;;;;;;25.35;21.90;;;3.70;99.90;;;;;;5023622;28;20190;-55
2023/12/07 12:19:13;;;;;;;23.58;21.05;;;3.80;99.90;;;;;;5023058;28;20221;-39
2023/12/07 12:21:38;;;;;;;23.52;21.15;;;3.80;99.90;;;;;;5022762;28;20221;-40
2023/12/07 12:24:08;;;;;;;24.37;21.20;;;3.80;99.90;;;;;;5023518;28;20324;-41
2023/12/07 12:26:34;;;;;;;24.45;21.80;;;3.80;99.90;;;;;;5023229;28;20694;-40
2023/12/07 12:29:01;;;;;;;25.90;21.20;;;3.90;99.90;;;;;;5023035;28;20192;-40
2023/12/07 12:31:28;;;;;;;22.15;19.45;;;3.80;96.20;;;;;;5023278;28;20182;-40
2023/12/07 12:33:54;;;;;;;25.35;22.65;;;3.80;97.90;;;;;;5022377;28;20202;-40